Time;durP1;ratioP1;P1;durP2;ratioP2;P2;SDS_P1;SDS_P2;PMS_P1;PMS_P2;Temp;Humidity;BMP_temperature;BMP_pressure;BME280_temperature;BME280_humidity;BME280_pressure;Samples;Min_cycle;Max_cycle;Signal;HPM_P1;HPM_P2
2021/06/03 00:00:10;;;;;;;6.83;4.83;;;15.60;65.00;;;;;;5029556;28;20298;-72
2021/06/03 00:02:38;;;;;;;8.20;4.80;;;15.60;64.20;;;;;;5033464;28;20293;-72
2021/06/03 00:05:07;;;;;;;10.03;5.13;;;15.50;63.90;;;;;;5033981;28;20618;-72
2021/06/03 00:07:34;;;;;;;10.97;4.33;;;15.50;63.80;;;;;;5020841;28;20292;-71
2021/06/03 00:10:00;;;;;;;10.63;4.10;;;15.50;63.80;;;;;;5028147;28;20286;-71
2021/06/03 00:12:26;;;;;;;7.13;4.00;;;15.50;63.80;;;;;;5032904;28;20690;-71
2021/06/03 00:14:53;;;;;;;8.07;4.87;;;15.50;63.70;;;;;;5027297;28;20657;-72
2021/06/03 00:17:19;;;;;;;11.90;4.30;;;15.50;63.60;;;;;;5033187;28;20214;-71
2021/06/03 00:19:47;;;;;;;9.13;4.33;;;15.50;63.50;;;;;;5028917;28;20270;-71
2021/06/03 00:22:14;;;;;;;16.43;5.07;;;15.50;64.20;;;;;;5022647;28;20207;-71
2021/06/03 00:24:40;;;;;;;9.93;4.63;;;15.50;64.70;;;;;;5029913;28;20211;-71
2021/06/03 00:27:07;;;;;;;11.60;5.10;;;15.50;64.80;;;;;;5029715;28;20610;-71
2021/06/03 00:29:33;;;;;;;14.43;4.83;;;15.50;65.20;;;;;;5030034;28;20243;-70
2021/06/03 00:32:00;;;;;;;13.37;4.97;;;15.50;65.30;;;;;;5029233;28;20213;-71
2021/06/03 00:34:26;;;;;;;14.40;5.27;;;15.50;65.60;;;;;;5031534;28;20222;-71
2021/06/03 00:36:54;;;;;;;12.63;4.90;;;15.50;65.90;;;;;;5026085;28;20214;-71
2021/06/03 00:39:20;;;;;;;8.90;4.60;;;15.50;66.00;;;;;;5024680;28;20249;-71
2021/06/03 00:41:47;;;;;;;9.93;4.87;;;15.50;66.20;;;;;;5033771;28;20242;-70
2021/06/03 00:44:13;;;;;;;7.37;4.57;;;15.60;66.40;;;;;;5030553;28;20265;-71
2021/06/03 00:46:39;;;;;;;6.50;4.10;;;15.50;66.30;;;;;;5021698;28;20267;-71
2021/06/03 00:49:06;;;;;;;7.93;4.63;;;15.50;66.20;;;;;;5028582;28;20697;-71
2021/06/03 00:51:32;;;;;;;6.83;4.90;;;15.50;66.10;;;;;;5025159;28;20207;-72
2021/06/03 00:54:00;;;;;;;6.33;5.07;;;15.50;66.40;;;;;;5021487;28;20229;-72
2021/06/03 00:56:27;;;;;;;13.30;4.80;;;15.40;66.50;;;;;;5023116;28;20515;-71
2021/06/03 00:58:53;;;;;;;10.60;4.77;;;15.40;66.80;;;;;;5030223;28;20215;-72
2021/06/03 01:01:20;;;;;;;7.57;4.30;;;15.40;66.90;;;;;;5031116;28;20202;-69
2021/06/03 01:03:46;;;;;;;8.73;5.07;;;15.40;66.70;;;;;;5032603;28;20195;-69
2021/06/03 01:06:13;;;;;;;8.10;4.80;;;15.40;66.80;;;;;;5022771;28;20289;-69
2021/06/03 01:08:42;;;;;;;8.07;4.53;;;15.40;67.00;;;;;;5018373;28;20203;-69
2021/06/03 01:11:16;;;;;;;5.60;4.10;;;15.40;66.90;;;;;;5028680;28;20203;-69
2021/06/03 01:13:51;;;;;;;6.80;4.77;;;15.40;66.90;;;;;;5032354;28;20231;-69
2021/06/03 01:16:19;;;;;;;15.73;4.40;;;15.40;67.00;;;;;;5024365;28;20205;-69
2021/06/03 01:18:46;;;;;;;7.53;4.90;;;15.50;67.10;;;;;;5030464;28;20206;-70
2021/06/03 01:21:14;;;;;;;5.70;4.17;;;15.50;67.00;;;;;;5033388;28;20740;-69
2021/06/03 01:23:46;;;;;;;8.73;5.20;;;15.50;66.80;;;;;;5027970;28;20219;-69
2021/06/03 01:26:17;;;;;;;10.13;4.80;;;15.50;66.60;;;;;;5027244;28;20201;-69
2021/06/03 01:28:44;;;;;;;11.83;5.50;;;15.50;66.90;;;;;;5029434;28;20347;-69
2021/06/03 01:31:11;;;;;;;11.17;4.83;;;15.50;66.90;;;;;;5031009;28;20234;-69
2021/06/03 01:33:41;;;;;;;9.00;5.50;;;15.50;67.20;;;;;;5028403;28;20291;-71
2021/06/03 01:36:11;;;;;;;14.43;4.47;;;15.50;67.40;;;;;;5031760;28;20286;-69
2021/06/03 01:38:40;;;;;;;6.67;4.63;;;15.50;66.50;;;;;;5031304;28;20577;-69
2021/06/03 01:41:08;;;;;;;7.27;4.70;;;15.50;66.60;;;;;;5023356;28;20349;-69
2021/06/03 01:43:39;;;;;;;7.03;4.97;;;15.50;66.60;;;;;;5028974;28;20206;-69
2021/06/03 01:46:06;;;;;;;6.17;4.67;;;15.60;66.60;;;;;;5027178;28;20213;-70
2021/06/03 01:48:33;;;;;;;9.60;4.93;;;15.50;66.30;;;;;;5031363;28;20210;-69
2021/06/03 01:51:03;;;;;;;9.07;4.67;;;15.60;66.20;;;;;;5021489;28;20293;-70
2021/06/03 01:53:30;;;;;;;8.13;5.07;;;15.60;66.20;;;;;;5029641;28;20285;-68
2021/06/03 01:56:03;;;;;;;6.30;4.60;;;15.60;66.50;;;;;;5031313;28;20207;-69
2021/06/03 01:58:30;;;;;;;6.33;4.80;;;15.60;66.50;;;;;;5031489;28;20206;-69
2021/06/03 02:00:59;;;;;;;9.73;4.60;;;15.60;66.40;;;;;;5032156;28;20225;-70
2021/06/03 02:03:26;;;;;;;6.20;4.90;;;15.60;66.20;;;;;;5032631;28;20266;-70
2021/06/03 02:05:52;;;;;;;9.37;5.23;;;15.70;66.10;;;;;;5022784;28;20305;-68
2021/06/03 02:08:19;;;;;;;7.43;5.00;;;15.70;65.90;;;;;;5025826;28;20264;-70
2021/06/03 02:10:46;;;;;;;8.23;4.73;;;15.70;65.90;;;;;;5031610;28;20667;-70
2021/06/03 02:13:17;;;;;;;11.33;4.90;;;15.70;65.90;;;;;;5024682;28;20309;-70
2021/06/03 02:15:51;;;;;;;6.47;4.73;;;15.70;65.80;;;;;;5025983;28;20213;-71
2021/06/03 02:18:22;;;;;;;7.33;4.30;;;15.60;65.50;;;;;;5030499;28;20590;-69
2021/06/03 02:20:52;;;;;;;7.10;4.50;;;15.70;65.60;;;;;;5031579;28;20214;-69
2021/06/03 02:23:18;;;;;;;10.53;5.13;;;15.70;65.50;;;;;;5018191;28;20297;-70
2021/06/03 02:25:46;;;;;;;7.00;4.30;;;15.60;65.40;;;;;;5030329;28;20198;-70
2021/06/03 02:28:14;;;;;;;7.30;4.40;;;15.60;65.40;;;;;;5028353;28;20264;-69
2021/06/03 02:30:41;;;;;;;10.10;4.70;;;15.60;65.30;;;;;;5028112;28;20325;-70
2021/06/03 02:33:08;;;;;;;6.30;4.47;;;15.60;65.40;;;;;;5033803;28;20560;-69
2021/06/03 02:35:35;;;;;;;7.03;4.43;;;15.70;65.70;;;;;;5028037;28;20202;-69
2021/06/03 02:38:02;;;;;;;8.77;4.67;;;15.70;65.70;;;;;;5032739;28;20713;-71
2021/06/03 02:40:31;;;;;;;8.43;4.90;;;15.70;65.50;;;;;;5027948;28;20210;-69
2021/06/03 02:42:58;;;;;;;8.07;4.37;;;15.70;65.30;;;;;;5032730;28;20236;-69
2021/06/03 02:45:27;;;;;;;6.17;4.50;;;15.70;65.20;;;;;;5031366;28;20264;-70
2021/06/03 02:47:53;;;;;;;8.97;4.27;;;15.70;65.00;;;;;;5034754;28;20215;-70
2021/06/03 02:50:22;;;;;;;5.97;4.23;;;15.80;65.20;;;;;;5033846;28;20682;-70
2021/06/03 02:52:51;;;;;;;6.20;4.20;;;15.80;65.30;;;;;;5032248;28;20660;-69
2021/06/03 02:55:19;;;;;;;8.27;4.67;;;15.80;65.50;;;;;;5028702;28;20325;-69
2021/06/03 02:57:47;;;;;;;7.87;4.30;;;15.80;65.50;;;;;;5033776;28;20713;-69
2021/06/03 03:00:17;;;;;;;8.10;4.47;;;15.80;65.40;;;;;;5027025;28;20302;-70
2021/06/03 03:02:44;;;;;;;7.37;4.90;;;15.70;66.20;;;;;;5036970;28;20202;-70
2021/06/03 03:05:10;;;;;;;6.03;4.73;;;15.80;65.70;;;;;;5031994;28;20248;-69
2021/06/03 03:07:39;;;;;;;8.13;4.67;;;15.70;66.00;;;;;;5034658;28;20213;-69
2021/06/03 03:10:12;;;;;;;5.53;4.90;;;15.80;66.20;;;;;;5029066;28;20306;-68
2021/06/03 03:12:38;;;;;;;9.77;5.03;;;15.80;66.20;;;;;;5033758;28;20282;-69
2021/06/03 03:15:06;;;;;;;7.73;4.90;;;15.80;66.20;;;;;;5031327;28;20238;-69
2021/06/03 03:17:32;;;;;;;6.40;5.13;;;15.80;66.20;;;;;;5032944;28;20584;-70
2021/06/03 03:19:59;;;;;;;7.53;5.27;;;15.80;66.30;;;;;;5028675;28;20202;-69
2021/06/03 03:22:25;;;;;;;6.83;4.63;;;15.90;67.40;;;;;;5031185;28;20214;-69
2021/06/03 03:24:51;;;;;;;7.37;4.67;;;16.00;67.00;;;;;;5031825;28;20209;-69
2021/06/03 03:27:19;;;;;;;8.67;4.97;;;16.00;66.90;;;;;;5029682;28;20561;-68
2021/06/03 03:29:45;;;;;;;5.00;4.50;;;16.10;67.10;;;;;;5031625;28;20243;-69
2021/06/03 03:32:12;;;;;;;5.83;4.97;;;16.10;67.80;;;;;;5025804;28;20206;-69
2021/06/03 03:34:38;;;;;;;8.87;4.60;;;16.10;67.10;;;;;;5030503;28;20664;-69
2021/06/03 03:37:06;;;;;;;6.57;5.03;;;16.10;67.20;;;;;;5029400;28;20672;-70
2021/06/03 03:39:32;;;;;;;10.43;5.77;;;16.10;67.40;;;;;;5029392;28;20203;-70
2021/06/03 03:41:59;;;;;;;9.43;5.53;;;16.10;67.60;;;;;;5028206;28;21038;-70
2021/06/03 03:44:26;;;;;;;8.17;5.50;;;16.10;67.80;;;;;;5030226;28;20202;-70
2021/06/03 03:46:53;;;;;;;7.87;5.60;;;16.00;68.10;;;;;;5032001;28;20325;-69
2021/06/03 03:49:19;;;;;;;6.37;5.70;;;16.10;68.50;;;;;;5027299;28;20211;-69
2021/06/03 03:51:46;;;;;;;7.93;5.60;;;16.00;68.40;;;;;;5031993;28;20258;-69
2021/06/03 03:54:12;;;;;;;7.47;5.50;;;16.10;68.60;;;;;;5023485;28;20229;-69
2021/06/03 03:56:38;;;;;;;7.40;5.93;;;16.10;68.80;;;;;;5030432;28;20652;-69
2021/06/03 03:59:05;;;;;;;9.43;6.53;;;16.00;69.60;;;;;;5023743;28;20252;-69
2021/06/03 04:01:33;;;;;;;10.73;6.23;;;16.10;69.10;;;;;;5031995;28;20266;-69
2021/06/03 04:03:59;;;;;;;10.77;6.03;;;16.10;69.20;;;;;;5032469;28;20290;-69
2021/06/03 04:06:26;;;;;;;10.07;5.63;;;16.10;69.30;;;;;;5029504;28;20211;-70
2021/06/03 04:08:52;;;;;;;9.43;6.00;;;16.20;69.60;;;;;;5028809;28;20555;-70
2021/06/03 04:11:19;;;;;;;13.17;5.40;;;16.20;69.60;;;;;;5034717;28;20207;-70
2021/06/03 04:13:46;;;;;;;9.03;5.63;;;16.30;69.60;;;;;;5033796;28;20234;-71
2021/06/03 04:16:12;;;;;;;8.33;5.97;;;16.40;69.70;;;;;;5032593;28;20213;-69
2021/06/03 04:18:40;;;;;;;10.03;6.60;;;16.40;69.40;;;;;;5028465;28;20238;-69
2021/06/03 04:21:07;;;;;;;9.23;5.90;;;16.40;69.30;;;;;;5030424;28;20577;-69
2021/06/03 04:23:33;;;;;;;8.80;5.67;;;16.50;69.30;;;;;;5033800;28;21031;-70
2021/06/03 04:26:00;;;;;;;9.17;5.67;;;16.50;68.90;;;;;;5030724;28;20232;-69
2021/06/03 04:28:26;;;;;;;7.90;5.13;;;16.50;68.80;;;;;;5032421;28;20293;-69
2021/06/03 04:30:53;;;;;;;8.63;5.77;;;16.50;68.90;;;;;;5029307;28;20325;-68
2021/06/03 04:33:21;;;;;;;8.17;5.83;;;16.50;68.90;;;;;;5022873;28;20644;-70
2021/06/03 04:35:49;;;;;;;11.13;5.73;;;16.60;69.10;;;;;;5025373;28;20213;-70
2021/06/03 04:38:15;;;;;;;11.43;5.97;;;16.60;69.20;;;;;;5028086;28;20206;-70
2021/06/03 04:40:42;;;;;;;7.03;5.23;;;16.60;69.30;;;;;;5022869;28;20206;-69
2021/06/03 04:43:09;;;;;;;7.37;5.97;;;16.70;69.30;;;;;;5031314;28;20290;-68
2021/06/03 04:45:36;;;;;;;10.20;6.20;;;16.70;69.10;;;;;;5028792;28;20222;-69
2021/06/03 04:48:04;;;;;;;10.90;6.00;;;16.80;68.90;;;;;;5026726;28;20211;-70
2021/06/03 04:50:31;;;;;;;11.00;5.63;;;16.80;68.90;;;;;;5028202;28;20210;-68
2021/06/03 04:52:59;;;;;;;9.20;5.93;;;16.90;68.70;;;;;;5029244;28;20246;-68
2021/06/03 04:55:26;;;;;;;8.57;6.40;;;17.10;68.40;;;;;;5029437;28;20580;-68
2021/06/03 04:57:54;;;;;;;7.73;5.73;;;17.30;68.30;;;;;;5031052;28;20321;-68
2021/06/03 05:00:25;;;;;;;10.43;5.67;;;17.40;67.90;;;;;;5027631;28;20206;-69
2021/06/03 05:02:51;;;;;;;8.93;5.67;;;17.60;67.60;;;;;;5024924;28;20245;-69
2021/06/03 05:05:18;;;;;;;9.30;6.23;;;17.70;67.10;;;;;;5021856;28;20215;-69
2021/06/03 05:07:46;;;;;;;8.83;6.60;;;17.80;66.90;;;;;;5031279;28;20302;-69
2021/06/03 05:10:15;;;;;;;9.33;5.87;;;17.90;66.50;;;;;;5027320;28;20210;-69
2021/06/03 05:12:42;;;;;;;8.00;5.63;;;18.00;66.30;;;;;;5030153;28;20453;-69
2021/06/03 05:15:10;;;;;;;8.60;5.70;;;18.10;66.10;;;;;;5030777;28;20273;-69
2021/06/03 05:17:37;;;;;;;10.27;6.30;;;18.20;65.80;;;;;;5023479;28;20214;-69
2021/06/03 05:20:05;;;;;;;9.37;6.00;;;18.20;65.90;;;;;;5025066;28;20210;-70
2021/06/03 05:22:31;;;;;;;10.10;5.73;;;18.30;66.00;;;;;;5024903;28;20214;-69
2021/06/03 05:24:58;;;;;;;7.47;5.57;;;18.30;65.70;;;;;;5028986;28;20301;-70
2021/06/03 05:27:25;;;;;;;9.57;6.17;;;18.30;65.50;;;;;;5029302;28;20215;-69
2021/06/03 05:29:52;;;;;;;7.70;5.17;;;18.20;65.30;;;;;;5029577;28;20249;-70
2021/06/03 05:32:18;;;;;;;10.07;6.10;;;18.20;65.60;;;;;;5032243;28;20211;-69
2021/06/03 05:34:45;;;;;;;8.43;6.00;;;18.20;65.60;;;;;;5031724;28;20313;-70
2021/06/03 05:37:11;;;;;;;7.67;5.63;;;18.20;65.90;;;;;;5028779;28;20209;-68
2021/06/03 05:39:37;;;;;;;7.77;5.87;;;18.30;66.00;;;;;;5026599;28;20671;-69
2021/06/03 05:42:04;;;;;;;10.77;6.40;;;18.30;66.00;;;;;;5021457;28;20298;-70
2021/06/03 05:44:32;;;;;;;8.20;5.97;;;18.30;66.10;;;;;;5031424;28;20198;-71
2021/06/03 05:46:59;;;;;;;10.90;6.50;;;18.50;66.30;;;;;;5033889;28;20218;-71
2021/06/03 05:49:26;;;;;;;7.97;5.17;;;18.50;66.20;;;;;;5029311;28;20556;-68
2021/06/03 05:51:53;;;;;;;8.97;5.50;;;18.70;65.90;;;;;;5028429;28;20213;-67
2021/06/03 05:54:20;;;;;;;8.00;5.80;;;18.80;66.30;;;;;;5029073;28;20222;-68
2021/06/03 05:56:46;;;;;;;10.43;6.00;;;18.90;65.20;;;;;;5025253;28;20498;-66
2021/06/03 05:59:12;;;;;;;9.17;5.57;;;19.00;64.80;;;;;;5027375;28;20217;-67
2021/06/03 06:01:40;;;;;;;7.63;6.13;;;19.00;64.70;;;;;;5025138;28;20310;-69
2021/06/03 06:04:19;;;;;;;8.80;5.85;;;19.00;64.60;;;;;;5029405;28;20210;-69
2021/06/03 06:06:44;;;;;;;7.90;6.20;;;19.10;64.80;;;;;;5027701;28;20202;-70
2021/06/03 06:09:11;;;;;;;9.80;6.07;;;19.20;65.00;;;;;;5035839;28;20691;-70
2021/06/03 06:11:39;;;;;;;7.78;6.15;;;19.30;65.00;;;;;;5032718;28;20217;-72
2021/06/03 06:14:06;;;;;;;10.57;5.87;;;19.40;64.80;;;;;;5029573;28;20231;-68
2021/06/03 06:16:33;;;;;;;9.35;5.47;;;19.40;64.50;;;;;;5034499;28;20203;-69
2021/06/03 06:19:01;;;;;;;9.63;5.07;;;19.50;63.60;;;;;;5027741;28;20211;-70
2021/06/03 06:21:28;;;;;;;8.13;5.20;;;19.60;63.60;;;;;;5033628;28;20242;-68
2021/06/03 06:23:55;;;;;;;7.13;5.68;;;19.60;63.10;;;;;;5025375;28;20210;-68
2021/06/03 06:26:22;;;;;;;6.25;4.53;;;19.60;63.00;;;;;;5022284;28;20211;-69
2021/06/03 06:28:49;;;;;;;7.38;4.90;;;19.60;62.70;;;;;;5027036;28;20652;-70
2021/06/03 06:31:17;;;;;;;6.45;4.97;;;19.70;62.80;;;;;;5032163;28;20241;-70
2021/06/03 06:33:44;;;;;;;5.60;4.35;;;19.70;62.30;;;;;;5028196;28;20558;-67
2021/06/03 06:36:12;;;;;;;10.02;4.60;;;19.80;62.10;;;;;;5034651;28;20245;-69
2021/06/03 06:38:38;;;;;;;6.90;4.75;;;19.80;62.40;;;;;;5027933;28;20214;-69
2021/06/03 06:41:06;;;;;;;7.85;5.38;;;19.80;62.20;;;;;;5026763;28;20215;-73
2021/06/03 06:43:34;;;;;;;5.68;5.05;;;20.00;62.50;;;;;;5031191;28;20303;-69
2021/06/03 06:46:01;;;;;;;5.95;4.78;;;20.10;62.30;;;;;;5029998;28;20261;-68
2021/06/03 06:48:28;;;;;;;7.25;4.45;;;20.20;62.20;;;;;;5026890;28;20209;-70
2021/06/03 06:50:54;;;;;;;5.40;4.68;;;20.30;61.40;;;;;;5032152;28;20532;-69
2021/06/03 06:53:22;;;;;;;8.65;4.55;;;20.40;61.00;;;;;;5030833;28;20301;-70
2021/06/03 06:55:49;;;;;;;6.97;4.60;;;20.50;61.10;;;;;;5026315;28;20797;-71
2021/06/03 06:58:16;;;;;;;6.72;3.60;;;20.60;60.80;;;;;;5037483;28;20237;-70
2021/06/03 07:00:44;;;;;;;6.97;4.47;;;20.70;60.30;;;;;;5036259;28;20672;-68
2021/06/03 07:03:11;;;;;;;12.20;4.70;;;20.80;60.30;;;;;;5038915;28;20229;-68
2021/06/03 07:05:40;;;;;;;7.40;4.28;;;20.90;59.70;;;;;;5039824;28;20578;-69
2021/06/03 07:08:06;;;;;;;6.43;3.92;;;21.00;59.50;;;;;;5036444;28;20305;-70
2021/06/03 07:10:34;;;;;;;6.47;4.88;;;21.00;59.50;;;;;;5034844;28;20256;-70
2021/06/03 07:13:01;;;;;;;8.98;3.95;;;21.10;59.20;;;;;;5033820;28;20554;-72
2021/06/03 07:15:27;;;;;;;9.35;4.07;;;21.10;59.40;;;;;;5034875;28;20695;-69
2021/06/03 07:17:55;;;;;;;7.13;4.30;;;21.20;59.20;;;;;;5035160;28;20686;-68
2021/06/03 07:20:22;;;;;;;7.78;4.03;;;21.30;58.80;;;;;;5036742;28;20298;-69
2021/06/03 07:22:51;;;;;;;4.40;3.55;;;21.40;58.40;;;;;;5034015;28;20286;-68
2021/06/03 07:25:19;;;;;;;7.20;4.10;;;21.50;58.60;;;;;;5033864;28;20712;-69
2021/06/03 07:27:48;;;;;;;5.13;3.97;;;21.60;58.70;;;;;;5035297;28;20241;-69
2021/06/03 07:30:17;;;;;;;6.95;4.55;;;21.60;58.60;;;;;;5034900;28;20238;-67
2021/06/03 07:32:44;;;;;;;7.68;3.95;;;21.80;58.90;;;;;;5031092;28;20217;-66
2021/06/03 07:35:13;;;;;;;7.63;4.10;;;21.90;58.70;;;;;;5034033;28;20229;-66
2021/06/03 07:37:40;;;;;;;7.30;4.00;;;22.00;58.40;;;;;;5035284;28;20550;-65
2021/06/03 07:40:12;;;;;;;4.95;4.03;;;22.10;58.00;;;;;;5034105;28;20238;-65
2021/06/03 07:42:39;;;;;;;6.05;4.05;;;22.20;57.30;;;;;;5033991;28;20289;-66
2021/06/03 07:45:09;;;;;;;8.85;5.30;;;22.30;57.20;;;;;;5033898;28;20206;-68
2021/06/03 07:47:38;;;;;;;10.32;4.53;;;22.30;57.50;;;;;;5035550;28;20202;-68
2021/06/03 07:50:06;;;;;;;8.82;4.50;;;22.40;57.30;;;;;;5035783;28;20210;-67
2021/06/03 07:52:34;;;;;;;5.88;4.57;;;22.60;57.40;;;;;;5034354;28;20257;-68
2021/06/03 07:55:00;;;;;;;5.63;3.97;;;22.70;56.90;;;;;;5034216;28;20269;-68
2021/06/03 07:57:26;;;;;;;5.90;3.60;;;22.80;57.00;;;;;;5035405;28;20216;-68
2021/06/03 07:59:53;;;;;;;7.43;3.90;;;23.00;57.50;;;;;;5035587;28;20238;-66
2021/06/03 08:02:20;;;;;;;5.72;3.80;;;23.10;56.40;;;;;;5031843;28;20286;-67
2021/06/03 08:04:47;;;;;;;8.70;3.85;;;23.30;56.10;;;;;;5034338;28;20230;-68
2021/06/03 08:07:13;;;;;;;5.10;3.20;;;23.50;55.40;;;;;;5024135;28;20366;-66
2021/06/03 08:09:41;;;;;;;6.00;3.42;;;23.60;54.10;;;;;;5034866;28;20206;-71
2021/06/03 08:12:08;;;;;;;6.60;3.15;;;23.70;52.80;;;;;;5033291;28;20214;-68
2021/06/03 08:14:34;;;;;;;5.05;2.97;;;23.80;52.40;;;;;;5031956;28;20236;-69
2021/06/03 08:17:01;;;;;;;5.80;3.20;;;23.90;52.70;;;;;;5029761;28;20217;-64
2021/06/03 08:19:28;;;;;;;3.40;3.10;;;24.00;52.40;;;;;;5026898;28;20210;-68
2021/06/03 08:21:55;;;;;;;5.10;2.35;;;24.10;51.90;;;;;;5028258;28;20215;-69
2021/06/03 08:24:21;;;;;;;6.00;2.78;;;24.20;50.20;;;;;;5033425;28;20572;-67
2021/06/03 08:26:50;;;;;;;4.05;2.03;;;24.30;48.00;;;;;;5035480;28;20211;-68
2021/06/03 08:29:17;;;;;;;4.50;1.77;;;24.40;46.90;;;;;;5032959;28;20215;-70
2021/06/03 08:31:44;;;;;;;6.55;1.92;;;24.50;45.20;;;;;;5033969;28;20203;-68
2021/06/03 08:34:11;;;;;;;13.00;2.30;;;24.40;43.90;;;;;;5033857;28;20594;-68
2021/06/03 08:36:39;;;;;;;8.80;3.05;;;24.50;44.90;;;;;;5033903;28;20248;-69
2021/06/03 08:39:07;;;;;;;6.25;2.63;;;24.60;46.70;;;;;;5038817;28;20211;-69
2021/06/03 08:41:37;;;;;;;3.30;2.38;;;24.90;47.30;;;;;;5027257;28;20211;-68
2021/06/03 08:44:04;;;;;;;1.67;1.50;;;25.30;47.20;;;;;;5033638;28;20248;-68
2021/06/03 08:46:31;;;;;;;2.60;2.40;;;25.60;45.00;;;;;;5032742;28;20288;-69
2021/06/03 08:49:00;;;;;;;3.08;2.08;;;25.70;44.30;;;;;;5031902;28;20214;-68
2021/06/03 08:51:26;;;;;;;2.70;2.13;;;25.90;43.50;;;;;;5033121;28;20252;-67
2021/06/03 08:53:54;;;;;;;4.93;2.80;;;26.10;44.00;;;;;;5032306;28;20221;-70
2021/06/03 08:56:21;;;;;;;3.50;2.65;;;26.20;44.10;;;;;;5034389;28;20298;-68
2021/06/03 08:58:52;;;;;;;3.13;2.47;;;26.20;44.00;;;;;;5040154;28;20206;-70
2021/06/03 09:01:20;;;;;;;2.70;2.13;;;26.10;43.60;;;;;;5034195;28;20203;-69
2021/06/03 09:03:48;;;;;;;5.38;2.03;;;25.90;43.30;;;;;;5023723;28;20290;-68
2021/06/03 09:06:15;;;;;;;2.78;2.00;;;25.70;43.10;;;;;;5033455;28;20198;-67
2021/06/03 09:08:47;;;;;;;3.90;1.98;;;25.60;44.30;;;;;;5022940;28;20562;-68
2021/06/03 09:11:19;;;;;;;3.75;2.00;;;25.50;42.60;;;;;;5033233;28;20548;-68
2021/06/03 09:13:49;;;;;;;2.23;1.70;;;25.30;42.80;;;;;;5032781;28;20257;-68
2021/06/03 09:16:21;;;;;;;2.33;1.98;;;25.30;42.90;;;;;;5033279;28;20206;-68
2021/06/03 09:18:51;;;;;;;3.05;2.17;;;25.50;42.70;;;;;;5033750;28;20255;-67
2021/06/03 09:21:19;;;;;;;2.33;2.00;;;25.60;42.50;;;;;;5038599;28;20301;-67
2021/06/03 09:23:47;;;;;;;2.35;2.10;;;25.80;42.80;;;;;;5036857;28;20292;-67
2021/06/03 09:26:16;;;;;;;4.35;1.67;;;26.00;42.80;;;;;;5033230;28;20289;-67
2021/06/03 09:28:47;;;;;;;2.28;1.70;;;26.10;42.30;;;;;;5032914;28;20230;-68
2021/06/03 09:31:19;;;;;;;2.97;1.85;;;26.40;41.80;;;;;;5033537;28;20234;-67
2021/06/03 09:34:00;;;;;;;2.78;2.25;;;26.70;39.90;;;;;;5029973;28;20686;-67
2021/06/03 09:36:37;;;;;;;2.83;2.03;;;26.80;39.30;;;;;;5031641;28;20691;-65
2021/06/03 09:39:12;;;;;;;3.58;2.35;;;26.80;39.90;;;;;;5028142;28;20253;-68
2021/06/03 09:41:41;;;;;;;4.55;1.85;;;26.80;40.70;;;;;;5028170;28;20206;-69
2021/06/03 09:44:12;;;;;;;2.00;1.80;;;26.80;41.10;;;;;;5027893;28;20294;-68
2021/06/03 09:46:41;;;;;;;2.40;2.08;;;26.80;41.70;;;;;;5028670;28;20207;-68
2021/06/03 09:49:13;;;;;;;3.83;2.08;;;27.00;41.40;;;;;;5029927;28;20659;-68
2021/06/03 09:51:40;;;;;;;2.65;2.10;;;27.10;41.00;;;;;;5026312;28;20629;-69
2021/06/03 09:54:08;;;;;;;2.30;1.98;;;27.40;40.90;;;;;;5026351;28;20326;-68
2021/06/03 09:56:36;;;;;;;3.10;2.05;;;27.50;40.20;;;;;;5022090;28;20221;-67
2021/06/03 09:59:05;;;;;;;4.90;2.22;;;27.60;40.30;;;;;;5030579;28;20241;-68
2021/06/03 10:01:46;;;;;;;3.75;2.30;;;27.70;39.90;;;;;;5026574;28;20245;-68
2021/06/03 10:04:16;;;;;;;2.47;2.10;;;27.80;40.40;;;;;;5028793;28;20194;-69
2021/06/03 10:07:12;;;;;;;2.90;1.85;;;28.00;39.30;;;;;;5028910;28;20274;-68
2021/06/03 10:09:58;;;;;;;4.57;2.10;;;27.90;39.00;;;;;;5025274;28;20214;-68
2021/06/03 10:12:43;;;;;;;7.60;1.80;;;27.70;38.60;;;;;;5023804;28;20622;-68
2021/06/03 10:15:15;;;;;;;3.70;2.25;;;27.70;39.10;;;;;;5026142;28;20598;-67
2021/06/03 10:17:48;;;;;;;2.47;2.05;;;27.70;39.60;;;;;;5025099;28;20206;-67
2021/06/03 10:20:17;;;;;;;2.55;1.90;;;27.50;38.60;;;;;;5025808;28;20227;-67
2021/06/03 10:22:46;;;;;;;2.83;1.90;;;27.50;38.80;;;;;;5033513;28;20341;-67
2021/06/03 10:25:15;;;;;;;4.47;1.85;;;27.60;39.00;;;;;;5033011;28;20233;-68
2021/06/03 10:27:43;;;;;;;3.53;2.10;;;27.80;38.60;;;;;;5034095;28;20203;-71
2021/06/03 10:30:15;;;;;;;3.45;2.30;;;28.10;38.20;;;;;;5030886;28;20234;-69
2021/06/03 10:32:43;;;;;;;3.25;1.90;;;28.20;37.90;;;;;;5032319;28;20293;-67
2021/06/03 10:35:13;;;;;;;4.63;1.90;;;28.10;38.00;;;;;;5038345;28;20246;-68
2021/06/03 10:37:40;;;;;;;5.35;1.80;;;27.80;38.60;;;;;;5032319;28;20241;-68
2021/06/03 10:40:09;;;;;;;2.72;1.73;;;27.80;38.90;;;;;;5037354;28;20298;-67
2021/06/03 10:42:36;;;;;;;2.00;1.60;;;27.80;38.70;;;;;;5028012;28;20199;-68
2021/06/03 10:45:05;;;;;;;4.13;1.70;;;27.70;38.70;;;;;;5024597;28;20253;-70
2021/06/03 10:47:33;;;;;;;3.75;1.80;;;27.50;38.70;;;;;;5028515;28;20622;-69
2021/06/03 10:50:02;;;;;;;3.10;1.83;;;27.40;39.20;;;;;;5032213;28;20643;-70
2021/06/03 10:52:29;;;;;;;1.88;1.70;;;27.10;39.40;;;;;;5027209;28;20202;-69
2021/06/03 10:54:58;;;;;;;3.70;2.25;;;26.80;38.90;;;;;;5030054;28;20231;-69
2021/06/03 10:57:45;;;;;;;1.98;1.73;;;26.50;39.50;;;;;;5032304;28;20367;-68
2021/06/03 11:00:43;;;;;;;4.50;1.90;;;26.30;39.40;;;;;;5033980;28;20557;-72
2021/06/03 11:03:18;;;;;;;2.58;1.77;;;26.20;39.70;;;;;;4998807;28;20660;-72
2021/06/03 11:05:47;;;;;;;2.75;2.00;;;26.30;41.00;;;;;;5029048;28;20196;-70
2021/06/03 11:08:27;;;;;;;1.85;1.75;;;26.60;40.50;;;;;;5032819;28;20290;-64
2021/06/03 11:10:55;;;;;;;2.20;1.77;;;27.00;40.00;;;;;;5029454;28;20210;-68
2021/06/03 11:13:22;;;;;;;4.00;1.90;;;27.50;39.90;;;;;;5028882;28;20226;-67
2021/06/03 11:16:08;;;;;;;2.63;1.98;;;27.70;39.70;;;;;;5024548;28;20227;-68
2021/06/03 11:19:14;;;;;;;4.15;1.83;;;28.00;38.80;;;;;;5030475;28;20202;-68
2021/06/03 11:22:10;;;;;;;3.10;1.88;;;28.40;38.70;;;;;;5032989;28;20265;-68
2021/06/03 11:24:46;;;;;;;2.00;1.80;;;28.60;38.50;;;;;;5031776;28;20277;-67
2021/06/03 11:27:15;;;;;;;5.45;2.45;;;28.40;38.20;;;;;;5031992;28;20202;-64
2021/06/03 11:29:57;;;;;;;2.58;1.95;;;28.20;38.30;;;;;;5026970;28;20234;-66
2021/06/03 11:32:24;;;;;;;2.58;1.90;;;27.90;38.60;;;;;;5027368;28;20672;-67
2021/06/03 11:34:54;;;;;;;5.75;2.17;;;27.60;38.20;;;;;;5026543;28;20321;-67
2021/06/03 11:37:23;;;;;;;5.82;2.30;;;27.20;38.70;;;;;;5023244;28;20202;-68
2021/06/03 11:39:51;;;;;;;7.20;2.70;;;26.90;39.80;;;;;;5033129;28;20297;-67
2021/06/03 11:42:21;;;;;;;4.60;2.17;;;26.70;41.20;;;;;;5034549;28;20229;-70
2021/06/03 11:45:16;;;;;;;4.20;1.88;;;26.60;40.80;;;;;;5031105;28;20294;-65
2021/06/03 11:48:06;;;;;;;5.47;2.33;;;26.40;41.10;;;;;;5029279;28;20205;-68
2021/06/03 11:51:04;;;;;;;6.38;2.63;;;26.30;41.30;;;;;;5032387;28;20206;-70
2021/06/03 11:53:32;;;;;;;4.05;2.08;;;26.30;42.30;;;;;;5027405;28;20206;-66
2021/06/03 11:56:14;;;;;;;3.90;1.98;;;26.60;42.40;;;;;;5023391;28;20539;-68
2021/06/03 11:58:49;;;;;;;2.20;2.00;;;26.80;40.10;;;;;;5029453;28;20722;-68
2021/06/03 12:01:38;;;;;;;5.45;2.15;;;26.70;40.00;;;;;;5033063;28;20209;-67
2021/06/03 12:04:10;;;;;;;4.53;2.20;;;26.60;40.80;;;;;;5029050;28;20629;-70
2021/06/03 12:06:40;;;;;;;4.00;2.22;;;26.50;40.30;;;;;;5031724;28;20214;-65
2021/06/03 12:09:23;;;;;;;3.08;1.73;;;26.70;42.00;;;;;;5032669;28;20230;-68
2021/06/03 12:11:53;;;;;;;6.47;1.80;;;27.00;41.40;;;;;;5033633;28;20205;-69
2021/06/03 12:14:21;;;;;;;2.40;2.08;;;27.30;40.00;;;;;;5034376;28;20607;-69
2021/06/03 12:16:53;;;;;;;7.38;1.92;;;27.40;39.10;;;;;;5031751;28;20221;-70
2021/06/03 12:19:22;;;;;;;3.58;1.80;;;27.20;39.90;;;;;;5035207;28;20217;-71
2021/06/03 12:21:52;;;;;;;2.45;1.65;;;26.90;39.80;;;;;;5034397;28;20294;-67
2021/06/03 12:24:31;;;;;;;4.68;2.15;;;26.60;40.70;;;;;;5036119;28;20203;-69
2021/06/03 12:26:57;;;;;;;4.32;2.08;;;26.40;41.10;;;;;;5046631;28;20213;-69
2021/06/03 12:29:25;;;;;;;7.75;2.15;;;26.20;41.60;;;;;;5026824;28;20253;-69
2021/06/03 12:31:52;;;;;;;3.28;2.10;;;26.20;41.70;;;;;;5033544;28;20213;-66
2021/06/03 12:34:20;;;;;;;4.75;1.80;;;26.30;41.70;;;;;;5034451;28;20210;-66
2021/06/03 12:36:47;;;;;;;2.35;2.10;;;26.40;41.40;;;;;;5034121;28;20202;-67
2021/06/03 12:39:14;;;;;;;4.00;1.90;;;26.30;39.80;;;;;;5035563;28;20247;-68
2021/06/03 12:41:43;;;;;;;4.53;1.90;;;26.20;39.60;;;;;;5034455;28;20209;-67
2021/06/03 12:44:11;;;;;;;2.90;1.90;;;26.30;40.80;;;;;;5033733;28;20207;-67
2021/06/03 12:46:39;;;;;;;2.42;2.22;;;26.40;40.80;;;;;;5033614;28;20292;-66
2021/06/03 12:49:11;;;;;;;2.25;1.90;;;26.60;40.10;;;;;;5039847;28;20214;-67
2021/06/03 12:51:49;;;;;;;2.67;1.95;;;26.80;39.70;;;;;;5032667;28;20199;-68
2021/06/03 12:54:17;;;;;;;1.85;1.65;;;27.20;39.20;;;;;;5041944;28;20723;-68